메인 페이지
METAR-TAF:

METAR-TAF

공항 :

Middleton Field

Evergreen, 앨라배마, 미국

위도: 31-25-08N, 경도: 087-02-53W, 고도: 78m

현재 날씨관측

예보는 14분 전, 19:44시(UTC)에 발표되었습니다.
남동21kt, 순간 최대 풍속 29kt
온도 26°C
습도 79%
기압 1016 hPa
시정: 2.4km
고도 2700ft 상공 구름 조금
고도 4000ft 상공 구름 보통
고도 4900ft 상공 구름 많음
뇌우, 강한비

METAR: KGZH 171944Z AUTO 14021G29KT 1 1/2SM +TSRA FEW027 SCT040 BKN049 26/22 A2999 RMK AO2 PK WND 15029/1942 LTG DSNT NE RAB42 TSB24 P0012 T02610217

시각: 14:58 (19:58 UTC)


TAF: 누락

4,000개 이상의 공항 관측 자료 및 예보 (METAR 및 TAF 보고).

지도상에서 검색 가능한 기상관측소가 노란 점과 빨간 점으로 표시되어 있습니다.

기상관측소 명을 보려면 표시 위로 마우스를 이동하세요.

날씨 관측과 예보를 보려면 클릭하세요.

지도 변경 : 확대하려면 엑스 표시가 있는 녹색 버튼, 축소하려면 빼기 표시가 있는 녹색 버튼, 다음 페이지의 지도를 보려면 녹색 화살표를 클릭하세요.


METAR-TAF: